createdAt,value
2022-11-05T00:01:41.127Z,37.05
2022-11-05T00:04:30.736Z,34.83
2022-11-05T00:07:21.385Z,31.60
2022-11-05T00:09:48.829Z,28.67
2022-11-05T00:15:19.344Z,27.48
2022-11-05T00:17:46.007Z,27.42
2022-11-05T00:20:15.639Z,28.63
2022-11-05T00:23:00.707Z,27.90
2022-11-05T00:25:29.785Z,29.13
2022-11-05T00:28:01.344Z,25.40
2022-11-05T00:30:28.896Z,26.77
2022-11-05T00:33:01.292Z,24.60
2022-11-05T00:35:28.001Z,23.75
2022-11-05T00:37:54.670Z,30.92
2022-11-05T00:40:21.463Z,24.65
2022-11-05T00:43:06.923Z,25.08
2022-11-05T00:45:33.613Z,27.38
2022-11-05T00:48:18.862Z,25.73
2022-11-05T00:50:45.948Z,27.42
2022-11-05T00:53:13.010Z,27.42
2022-11-05T00:55:41.969Z,28.75
2022-11-05T00:58:13.956Z,28.02
2022-11-05T01:00:43.315Z,32.92
2022-11-05T01:03:13.301Z,31.75
2022-11-05T01:05:43.306Z,34.10
2022-11-05T01:08:11.417Z,32.33
2022-11-05T01:10:52.371Z,32.85
2022-11-05T01:13:22.321Z,28.27
2022-11-05T01:15:50.836Z,30.88
2022-11-05T01:18:18.867Z,27.52
2022-11-05T01:20:45.722Z,27.23
2022-11-05T01:23:13.890Z,29.35
2022-11-05T01:25:42.292Z,28.92
2022-11-05T01:28:09.855Z,30.15
2022-11-05T01:30:37.244Z,26.65
2022-11-05T01:35:30.639Z,28.40
2022-11-05T01:37:57.359Z,20.10
2022-11-05T01:40:25.148Z,29.23
2022-11-05T01:42:51.837Z,29.70
2022-11-05T01:45:27.280Z,23.48
2022-11-05T01:48:11.111Z,27.48
2022-11-05T01:50:43.607Z,26.92
2022-11-05T01:53:19.140Z,27.35
2022-11-05T01:56:00.901Z,25.73
2022-11-05T01:58:33.733Z,24.05
2022-11-05T02:01:00.885Z,25.33
2022-11-05T02:03:28.735Z,23.25
2022-11-05T02:05:57.132Z,26.10
2022-11-05T02:08:48.587Z,23.98
2022-11-05T02:11:18.326Z,24.20
2022-11-05T02:13:46.202Z,23.30
2022-11-05T02:16:23.171Z,21.00
2022-11-05T02:19:10.646Z,23.20
2022-11-05T02:21:54.317Z,21.92
2022-11-05T02:24:29.958Z,25.48
2022-11-05T02:27:04.664Z,25.67
2022-11-05T02:29:48.332Z,23.60
2022-11-05T02:32:33.297Z,25.15
2022-11-05T02:35:27.067Z,23.10
2022-11-05T02:38:16.923Z,20.50
2022-11-05T02:41:24.022Z,20.33
2022-11-05T02:44:17.110Z,22.70
2022-11-05T02:47:03.186Z,24.70
2022-11-05T02:49:44.007Z,24.98
2022-11-05T02:52:22.170Z,21.85
2022-11-05T02:55:08.407Z,26.33
2022-11-05T02:57:36.734Z,25.80
2022-11-05T03:00:28.110Z,25.88
2022-11-05T03:02:55.163Z,26.58
2022-11-05T03:05:29.358Z,28.42
2022-11-05T03:08:11.236Z,23.92
2022-11-05T03:10:50.451Z,24.70
2022-11-05T03:13:39.997Z,25.70
2022-11-05T03:16:17.234Z,25.65
2022-11-05T03:18:58.463Z,20.20
2022-11-05T03:21:36.884Z,21.92
2022-11-05T03:24:17.770Z,19.52
2022-11-05T03:27:02.391Z,23.10
2022-11-05T03:29:36.114Z,24.10
2022-11-05T03:32:05.133Z,26.70
2022-11-05T03:34:36.803Z,22.50
2022-11-05T03:37:05.201Z,22.08
2022-11-05T03:39:43.050Z,23.80
2022-11-05T03:42:14.111Z,25.88
2022-11-05T03:44:45.452Z,20.77
2022-11-05T03:47:17.188Z,22.40
2022-11-05T03:50:07.117Z,22.20
2022-11-05T03:52:40.076Z,22.88
2022-11-05T03:55:07.141Z,22.27
2022-11-05T03:57:38.412Z,20.17
2022-11-05T04:00:09.494Z,22.60
2022-11-05T04:02:38.846Z,23.77
2022-11-05T04:05:06.181Z,21.83
2022-11-05T04:07:51.451Z,23.48
2022-11-05T04:10:36.888Z,25.23
2022-11-05T04:13:22.277Z,22.88
2022-11-05T04:16:07.759Z,22.90
2022-11-05T04:18:34.549Z,25.50
2022-11-05T04:21:19.860Z,24.85
2022-11-05T04:24:05.284Z,24.23
2022-11-05T04:26:31.975Z,21.58
2022-11-05T04:29:17.322Z,24.33
2022-11-05T04:31:44.013Z,22.15
2022-11-05T04:34:10.681Z,20.30
2022-11-05T04:36:37.362Z,21.23
2022-11-05T04:39:04.099Z,19.90
2022-11-05T04:41:30.754Z,22.42
2022-11-05T04:43:57.414Z,20.70
2022-11-05T04:46:24.079Z,19.15
2022-11-05T04:48:50.784Z,13.18
2022-11-05T04:51:17.649Z,10.90
2022-11-05T04:53:44.347Z,11.80
2022-11-05T04:56:23.299Z,14.02
2022-11-05T04:58:50.907Z,17.98
2022-11-05T05:01:23.422Z,18.23
2022-11-05T05:03:51.798Z,17.63
2022-11-05T05:06:18.921Z,19.30
2022-11-05T05:08:48.086Z,21.70
2022-11-05T05:11:16.991Z,20.63
2022-11-05T05:13:43.839Z,20.80
2022-11-05T05:16:21.274Z,20.17
2022-11-05T05:18:48.923Z,16.55
2022-11-05T05:21:36.347Z,20.35
2022-11-05T05:24:03.302Z,19.77
2022-11-05T05:26:30.099Z,21.42
2022-11-05T05:28:56.859Z,23.23
2022-11-05T05:31:23.879Z,20.92
2022-11-05T05:33:53.808Z,21.73
2022-11-05T05:36:21.450Z,19.33
2022-11-05T05:38:48.192Z,18.20
2022-11-05T05:41:15.262Z,15.50
2022-11-05T05:43:42.144Z,13.90
2022-11-05T05:46:12.410Z,11.20
2022-11-05T05:48:39.521Z,12.90
2022-11-05T05:51:08.290Z,13.80
2022-11-05T05:53:35.959Z,13.73
2022-11-05T05:56:03.419Z,12.00
2022-11-05T06:01:04.458Z,16.20
2022-11-05T06:03:31.192Z,15.43
2022-11-05T06:06:13.040Z,16.90
2022-11-05T06:08:40.270Z,18.35
2022-11-05T06:11:07.583Z,16.45
2022-11-05T06:16:02.859Z,17.40
2022-11-05T06:18:31.091Z,17.60
2022-11-05T06:21:06.031Z,21.88
2022-11-05T06:23:33.944Z,20.10
2022-11-05T06:26:01.978Z,19.02
2022-11-05T06:28:29.553Z,20.83
2022-11-05T06:30:57.564Z,23.95
2022-11-05T06:33:24.454Z,34.67
2022-11-05T06:35:51.498Z,38.10
2022-11-05T06:38:18.456Z,24.20
2022-11-05T06:40:45.175Z,21.15
2022-11-05T06:43:12.323Z,38.72
2022-11-05T06:45:39.284Z,40.75
2022-11-05T06:48:06.208Z,29.55
2022-11-05T06:50:32.886Z,27.70
2022-11-05T06:53:01.981Z,26.83
2022-11-05T06:55:30.748Z,26.38
2022-11-05T06:57:58.097Z,29.83
2022-11-05T07:00:25.132Z,25.77
2022-11-05T07:02:51.877Z,24.38
2022-11-05T07:05:18.575Z,29.80
2022-11-05T07:07:45.765Z,27.08
2022-11-05T07:10:15.396Z,26.52
2022-11-05T07:12:42.845Z,27.80
2022-11-05T07:17:37.051Z,28.67
2022-11-05T07:20:05.905Z,18.35
2022-11-05T07:22:33.488Z,26.08
2022-11-05T07:25:00.316Z,30.45
2022-11-05T07:27:27.048Z,28.38
2022-11-05T07:29:53.715Z,26.58
2022-11-05T07:32:20.394Z,27.23
2022-11-05T07:34:47.157Z,32.80
2022-11-05T07:37:16.529Z,28.40
2022-11-05T07:39:43.326Z,35.78
2022-11-05T07:42:13.729Z,31.85
2022-11-05T07:44:40.856Z,30.80
2022-11-05T07:47:07.656Z,33.50
2022-11-05T07:49:34.351Z,32.95
2022-11-05T07:52:01.023Z,23.38
2022-11-05T07:54:27.760Z,33.45
2022-11-05T07:56:54.472Z,31.17
2022-11-05T07:59:21.173Z,28.50
2022-11-05T08:01:47.980Z,28.80
2022-11-05T08:04:14.854Z,25.98
2022-11-05T08:06:41.623Z,28.23
2022-11-05T08:09:08.999Z,28.73
2022-11-05T08:14:02.575Z,25.02
2022-11-05T08:16:29.326Z,26.83
2022-11-05T08:18:55.992Z,26.98
2022-11-05T08:21:22.674Z,29.40
2022-11-05T08:23:49.346Z,26.20
2022-11-05T08:26:16.076Z,26.27
2022-11-05T08:28:42.761Z,22.85
2022-11-05T08:31:09.434Z,18.95
2022-11-05T08:33:36.326Z,23.17
2022-11-05T08:36:04.506Z,21.92
2022-11-05T08:38:31.697Z,25.50
2022-11-05T08:40:58.568Z,21.17
2022-11-05T08:43:25.578Z,24.27
2022-11-05T08:45:52.369Z,23.30
2022-11-05T08:48:19.563Z,20.30
2022-11-05T08:50:48.112Z,26.23
2022-11-05T08:53:15.974Z,23.52
2022-11-05T08:55:43.897Z,24.75
2022-11-05T08:58:14.895Z,20.80
2022-11-05T09:00:42.597Z,26.85
2022-11-05T09:03:09.959Z,23.08
2022-11-05T09:05:39.278Z,22.65
2022-11-05T09:08:07.613Z,23.02
2022-11-05T09:10:35.078Z,28.05
2022-11-05T09:13:02.159Z,26.38
2022-11-05T09:15:30.375Z,21.55
2022-11-05T09:17:57.156Z,22.88
2022-11-05T09:20:23.987Z,26.05
2022-11-05T09:22:50.736Z,22.35
2022-11-05T09:25:17.532Z,22.85
2022-11-05T09:27:44.487Z,20.98
2022-11-05T09:30:13.350Z,24.30
2022-11-05T09:32:40.190Z,21.70
2022-11-05T09:35:07.810Z,23.30
2022-11-05T09:37:35.056Z,28.25
2022-11-05T09:40:01.757Z,21.42
2022-11-05T09:42:46.973Z,22.52
2022-11-05T09:45:19.764Z,22.30
2022-11-05T09:47:53.517Z,28.75
2022-11-05T09:50:27.523Z,23.58
2022-11-05T09:52:54.247Z,24.63
2022-11-05T09:55:34.775Z,21.60
2022-11-05T09:58:06.510Z,24.05
2022-11-05T10:00:33.875Z,23.67
2022-11-05T10:05:34.373Z,21.48
2022-11-05T10:08:27.284Z,19.25
2022-11-05T10:11:07.168Z,25.92
2022-11-05T10:13:39.906Z,26.98
2022-11-05T10:16:12.515Z,23.13
2022-11-05T10:18:42.875Z,20.10
2022-11-05T10:21:17.091Z,18.90
2022-11-05T10:23:46.800Z,18.27
2022-11-05T10:26:21.757Z,21.85
2022-11-05T10:28:50.622Z,15.98
2022-11-05T10:31:23.236Z,19.42
2022-11-05T10:34:17.766Z,20.42
2022-11-05T10:36:44.498Z,20.23
2022-11-05T10:39:19.066Z,21.58
2022-11-05T10:42:26.729Z,20.48
2022-11-05T10:45:18.091Z,22.45
2022-11-05T10:47:49.019Z,19.77
2022-11-05T10:50:21.247Z,21.33
2022-11-05T10:53:02.458Z,21.88
2022-11-05T10:55:31.565Z,22.45
2022-11-05T10:58:16.416Z,24.65
2022-11-05T11:00:45.173Z,20.85
2022-11-05T11:03:33.598Z,18.70
2022-11-05T11:06:02.495Z,19.63
2022-11-05T11:08:30.735Z,19.85
2022-11-05T11:11:02.065Z,20.83
2022-11-05T11:13:49.095Z,20.38
2022-11-05T11:16:21.637Z,21.50
2022-11-05T11:18:56.797Z,18.23
2022-11-05T11:21:23.775Z,19.13
2022-11-05T11:23:58.967Z,17.77
2022-11-05T11:26:28.702Z,16.98
2022-11-05T11:29:01.738Z,18.92
2022-11-05T11:31:31.468Z,19.83
2022-11-05T11:34:02.808Z,16.52
2022-11-05T11:36:42.770Z,17.25
2022-11-05T11:39:19.496Z,18.20
2022-11-05T11:41:50.947Z,12.98
2022-11-05T11:44:29.525Z,13.70
2022-11-05T11:47:03.180Z,15.48
2022-11-05T11:49:53.632Z,19.95
2022-11-05T11:52:34.469Z,13.52
2022-11-05T11:55:13.327Z,11.88
2022-11-05T11:57:46.844Z,17.85
2022-11-05T12:00:15.196Z,14.77
2022-11-05T12:02:50.741Z,17.63
2022-11-05T12:05:38.706Z,17.50
2022-11-05T12:08:45.350Z,13.90
2022-11-05T12:11:25.370Z,17.92
2022-11-05T12:14:10.708Z,15.23
2022-11-05T12:17:04.170Z,15.48
2022-11-05T12:20:08.543Z,17.77
2022-11-05T12:22:44.080Z,17.60
2022-11-05T12:25:10.739Z,15.27
2022-11-05T12:28:13.915Z,15.98
2022-11-05T12:30:50.416Z,14.80
2022-11-05T12:33:21.594Z,13.55
2022-11-05T12:35:57.438Z,14.93
2022-11-05T12:38:57.291Z,14.57
2022-11-05T12:41:29.863Z,15.20
2022-11-05T12:44:32.913Z,14.10
2022-11-05T12:47:26.750Z,13.57
2022-11-05T12:50:00.031Z,12.80
2022-11-05T12:52:57.610Z,12.98
2022-11-05T12:55:26.178Z,13.77
2022-11-05T12:57:57.055Z,13.85
2022-11-05T13:00:26.106Z,12.98
2022-11-05T13:03:07.841Z,13.45
2022-11-05T13:06:02.905Z,13.15
2022-11-05T13:09:07.412Z,14.25
2022-11-05T13:11:40.108Z,16.48
2022-11-05T13:14:14.396Z,17.50
2022-11-05T13:16:46.133Z,16.95
2022-11-05T13:19:24.273Z,12.00
2022-11-05T13:21:56.491Z,12.75
2022-11-05T13:24:38.547Z,16.17
2022-11-05T13:27:42.345Z,15.00
2022-11-05T13:30:15.575Z,12.05
2022-11-05T13:32:47.052Z,13.40
2022-11-05T13:35:27.662Z,14.27
2022-11-05T13:38:17.648Z,15.63
2022-11-05T13:40:53.285Z,16.27
2022-11-05T13:44:02.078Z,19.38
2022-11-05T13:46:31.495Z,16.95
2022-11-05T13:49:16.459Z,15.25
2022-11-05T13:52:25.906Z,16.65
2022-11-05T13:54:59.864Z,20.20
2022-11-05T13:57:37.346Z,17.05
2022-11-05T14:00:06.813Z,18.27
2022-11-05T14:02:41.375Z,17.67
2022-11-05T14:05:21.707Z,22.08
2022-11-05T14:07:49.272Z,18.33
2022-11-05T14:10:42.319Z,16.45
2022-11-05T14:13:27.212Z,18.67
2022-11-05T14:16:08.107Z,19.25
2022-11-05T14:18:44.882Z,17.35
2022-11-05T14:21:48.628Z,17.92
2022-11-05T14:24:43.353Z,24.02
2022-11-05T14:27:13.061Z,20.98
2022-11-05T14:29:44.968Z,17.25
2022-11-05T14:32:18.598Z,19.10
2022-11-05T14:35:12.484Z,18.50
2022-11-05T14:37:50.561Z,16.02
2022-11-05T14:40:37.114Z,14.77
2022-11-05T14:43:27.588Z,13.68
2022-11-05T14:46:08.571Z,22.52
2022-11-05T14:48:40.888Z,23.45
2022-11-05T14:51:31.024Z,21.15
2022-11-05T14:54:00.202Z,21.17
2022-11-05T14:56:27.012Z,20.45
2022-11-05T14:59:25.699Z,23.67
2022-11-05T15:01:57.481Z,20.55
2022-11-05T15:04:45.253Z,26.50
2022-11-05T15:07:29.485Z,25.33
2022-11-05T15:10:13.594Z,22.52
2022-11-05T15:12:53.902Z,18.52
2022-11-05T15:15:29.672Z,20.05
2022-11-05T15:18:21.840Z,19.02
2022-11-05T15:20:52.690Z,16.55
2022-11-05T15:23:25.171Z,21.17
2022-11-05T15:26:23.636Z,28.80
2022-11-05T15:28:52.596Z,30.67
2022-11-05T15:31:33.984Z,26.38
2022-11-05T15:34:17.828Z,32.42
2022-11-05T15:37:19.967Z,33.25
2022-11-05T15:39:48.671Z,33.05
2022-11-05T15:42:26.190Z,33.03
2022-11-05T15:44:57.855Z,31.52
2022-11-05T15:47:25.768Z,29.08
2022-11-05T15:49:55.754Z,27.13
2022-11-05T15:52:33.626Z,34.67
2022-11-05T15:55:29.634Z,33.20
2022-11-05T15:58:04.575Z,35.40
2022-11-05T16:00:34.741Z,39.08
2022-11-05T16:03:16.163Z,65.05
2022-11-05T16:05:45.415Z,76.78
2022-11-05T16:08:18.467Z,115.72
2022-11-05T16:10:54.252Z,106.82
2022-11-05T16:13:39.005Z,74.07
2022-11-05T16:16:15.899Z,71.78
2022-11-05T16:18:43.787Z,61.13
2022-11-05T16:21:18.183Z,52.95
2022-11-05T16:23:48.980Z,60.88
2022-11-05T16:27:01.272Z,56.45
2022-11-05T16:29:30.972Z,60.28
2022-11-05T16:31:59.938Z,52.42
2022-11-05T16:34:38.343Z,53.20
2022-11-05T16:37:08.076Z,56.08
2022-11-05T16:39:34.787Z,59.67
2022-11-05T16:42:01.496Z,58.35
2022-11-05T16:44:28.203Z,72.55
2022-11-05T16:46:54.931Z,76.75
2022-11-05T16:49:21.699Z,56.28
2022-11-05T16:51:48.507Z,58.35
2022-11-05T16:54:15.251Z,62.83
2022-11-05T16:56:43.766Z,59.08
2022-11-05T16:59:13.120Z,71.78
2022-11-05T17:01:42.125Z,65.30
2022-11-05T17:04:11.428Z,61.72
2022-11-05T17:06:38.288Z,61.40
2022-11-05T17:09:04.988Z,65.28
2022-11-05T17:11:31.686Z,57.85
2022-11-05T17:13:58.364Z,64.35
2022-11-05T17:16:26.250Z,69.25
2022-11-05T17:18:52.940Z,64.85
2022-11-05T17:21:19.631Z,65.63
2022-11-05T17:23:46.459Z,69.18
2022-11-05T17:26:13.617Z,50.13
2022-11-05T17:28:41.048Z,38.22
2022-11-05T17:33:35.459Z,33.85
2022-11-05T17:36:10.892Z,32.05
2022-11-05T17:38:37.723Z,31.27
2022-11-05T17:41:12.230Z,38.05
2022-11-05T17:43:39.054Z,34.70
2022-11-05T17:46:10.671Z,26.67
2022-11-05T17:48:38.464Z,30.92
2022-11-05T17:51:08.194Z,34.30
2022-11-05T17:53:35.309Z,37.13
2022-11-05T17:56:02.336Z,40.55
2022-11-05T17:58:29.003Z,37.40
2022-11-05T18:00:55.680Z,39.25
2022-11-05T18:03:22.376Z,36.58
2022-11-05T18:05:49.092Z,38.75
2022-11-05T18:08:15.799Z,36.33
2022-11-05T18:10:42.594Z,35.25
2022-11-05T18:13:10.665Z,38.75
2022-11-05T18:15:40.894Z,36.70
2022-11-05T18:18:08.284Z,41.75
2022-11-05T18:23:01.899Z,38.03
2022-11-05T18:25:28.623Z,37.90
2022-11-05T18:27:55.507Z,42.95
2022-11-05T18:30:22.316Z,47.28
2022-11-05T18:32:50.934Z,61.22
2022-11-05T18:35:17.703Z,54.30
2022-11-05T18:37:44.455Z,47.55
2022-11-05T18:40:11.460Z,48.30
2022-11-05T18:42:38.480Z,47.05
2022-11-05T18:45:06.610Z,55.72
2022-11-05T18:47:34.233Z,55.85
2022-11-05T18:50:01.633Z,57.92
2022-11-05T18:52:31.445Z,61.00
2022-11-05T18:54:59.051Z,65.47
2022-11-05T18:57:26.735Z,59.35
2022-11-05T18:59:53.428Z,52.95
2022-11-05T19:02:20.432Z,54.50
2022-11-05T19:05:14.054Z,49.45
2022-11-05T19:07:37.353Z,62.22
2022-11-05T19:10:05.035Z,48.22
2022-11-05T19:12:31.876Z,55.00
2022-11-05T19:15:02.373Z,53.40
2022-11-05T19:17:30.767Z,53.83
2022-11-05T19:19:57.549Z,53.92
2022-11-05T19:22:25.841Z,58.90
2022-11-05T19:24:52.871Z,52.90
2022-11-05T19:27:19.975Z,52.03
2022-11-05T19:29:47.261Z,65.00
2022-11-05T19:32:13.963Z,48.35
2022-11-05T19:34:40.651Z,49.75
2022-11-05T19:37:08.148Z,56.72
2022-11-05T19:39:35.703Z,48.40
2022-11-05T19:42:03.896Z,46.40
2022-11-05T19:44:30.894Z,45.90
2022-11-05T19:46:57.696Z,44.88
2022-11-05T19:49:24.589Z,39.47
2022-11-05T19:51:51.254Z,47.60
2022-11-05T19:54:18.027Z,66.15
2022-11-05T19:56:45.584Z,69.28
2022-11-05T19:59:12.923Z,63.33
2022-11-05T20:04:06.570Z,54.58
2022-11-05T20:06:38.592Z,68.97
2022-11-05T20:09:27.114Z,59.70
2022-11-05T20:14:22.973Z,47.50
2022-11-05T20:16:50.410Z,40.92
2022-11-05T20:19:20.064Z,40.67
2022-11-05T20:21:47.076Z,47.95
2022-11-05T20:24:22.355Z,84.97
2022-11-05T20:26:51.578Z,76.05
2022-11-05T20:29:18.307Z,98.38
2022-11-05T20:31:45.049Z,140.18
2022-11-05T20:34:11.739Z,100.80
2022-11-05T20:36:39.510Z,51.58
2022-11-05T20:39:06.200Z,51.20
2022-11-05T20:41:33.204Z,77.47
2022-11-05T20:44:00.035Z,56.38
2022-11-05T20:46:27.079Z,38.28
2022-11-05T20:48:54.100Z,33.67
2022-11-05T20:51:22.855Z,31.08
2022-11-05T20:53:53.759Z,28.80
2022-11-05T20:56:23.134Z,35.10
2022-11-05T20:58:50.448Z,33.63
2022-11-05T21:03:45.699Z,35.00
2022-11-05T21:06:13.417Z,32.30
2022-11-05T21:08:40.250Z,46.03
2022-11-05T21:11:07.296Z,48.53
2022-11-05T21:13:34.719Z,45.78
2022-11-05T21:18:32.826Z,42.60
2022-11-05T21:21:02.434Z,39.40
2022-11-05T21:23:29.271Z,43.70
2022-11-05T21:25:56.036Z,41.10
2022-11-05T21:28:23.431Z,32.78
2022-11-05T21:33:18.400Z,22.33
2022-11-05T21:35:47.360Z,26.67
2022-11-05T21:38:16.727Z,23.27
2022-11-05T21:40:44.977Z,18.85
2022-11-05T21:43:12.463Z,18.50
2022-11-05T21:45:41.078Z,24.83
2022-11-05T21:48:08.666Z,26.30
2022-11-05T21:50:56.744Z,29.73
2022-11-05T21:53:42.324Z,25.55
2022-11-05T21:56:40.502Z,14.82
2022-11-05T21:59:28.490Z,10.38
2022-11-05T22:02:01.241Z,12.85
2022-11-05T22:04:37.568Z,11.27
2022-11-05T22:07:05.784Z,11.90
2022-11-05T22:09:32.850Z,15.00
2022-11-05T22:12:00.233Z,13.93
2022-11-05T22:16:54.330Z,14.02
2022-11-05T22:19:23.180Z,12.85
2022-11-05T22:21:50.303Z,15.63
2022-11-05T22:24:17.479Z,21.38
2022-11-05T22:26:45.293Z,25.85
2022-11-05T22:29:12.812Z,29.73
2022-11-05T22:31:39.985Z,31.77
2022-11-05T22:34:07.304Z,30.50
2022-11-05T22:39:01.915Z,19.75
2022-11-05T22:41:29.251Z,15.43
2022-11-05T22:46:25.024Z,11.60
2022-11-05T22:48:52.260Z,10.75
2022-11-05T22:51:21.965Z,14.98
2022-11-05T22:53:48.928Z,15.00
2022-11-05T22:56:18.207Z,18.50
2022-11-05T22:58:44.929Z,24.48
2022-11-05T23:01:12.753Z,22.83
2022-11-05T23:03:41.097Z,25.73
2022-11-05T23:06:31.290Z,24.30
2022-11-05T23:09:17.692Z,22.73
2022-11-05T23:11:47.980Z,15.45
2022-11-05T23:14:14.882Z,18.13
2022-11-05T23:17:01.263Z,21.13
2022-11-05T23:19:46.982Z,14.65
2022-11-05T23:22:38.213Z,16.08
2022-11-05T23:25:08.043Z,17.13
2022-11-05T23:27:37.508Z,13.60
2022-11-05T23:30:08.406Z,13.52
2022-11-05T23:32:35.773Z,10.55
2022-11-05T23:37:48.906Z,9.70
2022-11-05T23:40:27.539Z,6.03
2022-11-05T23:43:13.516Z,12.63
2022-11-05T23:45:57.638Z,17.15
2022-11-05T23:48:27.072Z,16.70
2022-11-05T23:51:01.959Z,17.70
2022-11-05T23:53:31.216Z,17.85
2022-11-05T23:56:07.476Z,14.00
2022-11-05T23:58:34.792Z,15.55
